Time,TemperatureF,DewpointF,PressureIn,WindDirection,WindDirectionDegrees,WindSpeedMPH,WindSpeedGustMPH,Humidity,HourlyPrecipIn,Conditions,Clouds,dailyrainin,SoftwareType,DateUTC
2013-03-12 00:02:00,42.0,33.0,30.06,West,278,0.0,0.0,69,0.00,,,0.00,,2013-03-12 05:02:00,
2013-03-12 00:12:00,42.0,33.0,30.06,West,278,0.0,0.0,69,0.00,,,0.00,,2013-03-12 05:12:00,
2013-03-12 00:22:00,41.0,32.0,30.06,WNW,283,0.0,4.0,69,0.00,,,0.00,,2013-03-12 05:22:00,
2013-03-12 00:32:00,41.0,32.0,30.06,NNW,340,3.0,4.0,71,0.00,,,0.00,,2013-03-12 05:32:00,
2013-03-12 00:42:00,41.0,32.0,30.06,NNW,340,3.0,4.0,71,0.00,,,0.00,,2013-03-12 05:42:00,
2013-03-12 00:52:00,41.0,32.0,30.08,NW,307,3.0,5.0,69,0.00,,,0.00,,2013-03-12 05:52:00,
2013-03-12 01:02:00,41.0,32.0,30.08,NW,307,3.0,5.0,69,0.00,,,0.00,,2013-03-12 06:02:00,
2013-03-12 01:12:00,41.0,32.0,30.08,NW,307,3.0,5.0,69,0.00,,,0.00,,2013-03-12 06:12:00,
2013-03-12 01:22:00,40.0,31.0,30.10,WNW,295,1.0,3.0,70,0.00,,,0.00,,2013-03-12 06:22:00,
2013-03-12 01:32:00,40.0,32.0,30.10,NNW,331,0.0,3.0,72,0.00,,,0.00,,2013-03-12 06:32:00,
2013-03-12 01:42:00,40.0,32.0,30.10,NNW,331,0.0,3.0,72,0.00,,,0.00,,2013-03-12 06:42:00,
2013-03-12 01:52:00,39.0,31.0,30.10,NE,49,2.0,5.0,72,0.00,,,0.00,,2013-03-12 06:52:00,
2013-03-12 02:02:00,40.0,30.0,30.12,NNW,329,4.0,6.0,66,0.00,,,0.00,,2013-03-12 07:02:00,
2013-03-12 02:12:00,40.0,30.0,30.12,NNW,329,4.0,6.0,66,0.00,,,0.00,,2013-03-12 07:12:00,
2013-03-12 02:22:00,41.0,30.0,30.13,NNW,344,0.0,7.0,64,0.00,,,0.00,,2013-03-12 07:22:00,
2013-03-12 02:32:00,41.0,30.0,30.13,NNW,344,0.0,7.0,64,0.00,,,0.00,,2013-03-12 07:32:00,
2013-03-12 02:42:00,41.0,30.0,30.13,NNW,344,0.0,7.0,64,0.00,,,0.00,,2013-03-12 07:42:00,
2013-03-12 02:52:00,41.0,29.0,30.15,NNE,15,1.0,9.0,62,0.00,,,0.00,,2013-03-12 07:52:00,
2013-03-12 03:02:00,41.0,30.0,30.15,North,10,3.0,6.0,64,0.00,,,0.00,,2013-03-12 08:02:00,
2013-03-12 03:13:00,41.0,30.0,30.15,North,10,3.0,6.0,64,0.00,,,0.00,,2013-03-12 08:13:00,
2013-03-12 03:22:00,40.0,29.0,30.16,NE,53,2.0,5.0,65,0.00,,,0.00,,2013-03-12 08:22:00,
2013-03-12 03:32:00,40.0,30.0,30.16,NE,44,2.0,3.0,67,0.00,,,0.00,,2013-03-12 08:32:00,
2013-03-12 03:42:00,40.0,30.0,30.16,NE,44,2.0,3.0,67,0.00,,,0.00,,2013-03-12 08:42:00,
2013-03-12 03:52:00,39.0,29.0,30.16,ENE,58,0.0,2.0,68,0.00,,,0.00,,2013-03-12 08:52:00,
2013-03-12 04:03:00,39.0,30.0,30.16,North,5,0.0,1.0,69,0.00,,,0.00,,2013-03-12 09:03:00,
2013-03-12 04:12:00,39.0,30.0,30.16,North,5,0.0,1.0,69,0.00,,,0.00,,2013-03-12 09:12:00,
2013-03-12 04:22:00,39.0,30.0,30.17,WNW,301,0.0,3.0,69,0.00,,,0.00,,2013-03-12 09:22:00,
2013-03-12 04:32:00,39.0,30.0,30.17,WNW,301,0.0,3.0,69,0.00,,,0.00,,2013-03-12 09:32:00,
2013-03-12 04:42:00,39.0,30.0,30.17,WNW,301,0.0,3.0,69,0.00,,,0.00,,2013-03-12 09:42:00,
2013-03-12 04:52:00,38.0,29.0,30.17,NNW,340,0.0,0.0,71,0.00,,,0.00,,2013-03-12 09:52:00,
2013-03-12 05:02:00,38.0,29.0,30.18,NW,314,0.0,0.0,71,0.00,,,0.00,,2013-03-12 10:02:00,
2013-03-12 05:12:00,38.0,29.0,30.18,NW,314,0.0,0.0,71,0.00,,,0.00,,2013-03-12 10:12:00,
2013-03-12 05:22:00,37.0,29.0,30.19,SW,229,0.0,1.0,73,0.00,,,0.00,,2013-03-12 10:22:00,
2013-03-12 05:32:00,37.0,29.0,30.19,SW,229,0.0,1.0,73,0.00,,,0.00,,2013-03-12 10:32:00,
2013-03-12 05:42:00,37.0,29.0,30.19,SW,229,0.0,1.0,73,0.00,,,0.00,,2013-03-12 10:42:00,
2013-03-12 05:52:00,37.0,29.0,30.19,SW,229,0.0,1.0,73,0.00,,,0.00,,2013-03-12 10:52:00,
2013-03-12 06:02:00,37.0,29.0,30.20,West,279,0.0,0.0,74,0.00,,,0.00,,2013-03-12 11:02:00,
2013-03-12 06:12:00,37.0,29.0,30.20,West,279,0.0,0.0,74,0.00,,,0.00,,2013-03-12 11:12:00,
2013-03-12 06:22:00,37.0,30.0,30.21,West,280,0.0,0.0,76,0.00,,,0.00,,2013-03-12 11:22:00,
2013-03-12 06:32:00,36.0,29.0,30.22,West,280,0.0,0.0,76,0.00,,,0.00,,2013-03-12 11:32:00,
2013-03-12 06:42:00,36.0,29.0,30.22,West,280,0.0,0.0,76,0.00,,,0.00,,2013-03-12 11:42:00,
2013-03-12 06:52:00,36.0,29.0,30.22,West,280,0.0,0.0,76,0.00,,,0.00,,2013-03-12 11:52:00,
2013-03-12 07:02:00,36.0,29.0,30.22,West,280,0.0,0.0,76,0.00,,,0.00,,2013-03-12 12:02:00,
2013-03-12 07:12:00,36.0,29.0,30.22,West,280,0.0,0.0,76,0.00,,,0.00,,2013-03-12 12:12:00,
2013-03-12 07:22:00,36.0,29.0,30.23,West,280,0.0,0.0,76,0.00,,,0.00,,2013-03-12 12:22:00,
2013-03-12 07:32:00,36.0,29.0,30.23,West,280,0.0,0.0,76,0.00,,,0.00,,2013-03-12 12:32:00,
2013-03-12 07:42:00,36.0,29.0,30.23,West,280,0.0,0.0,76,0.00,,,0.00,,2013-03-12 12:42:00,
2013-03-12 07:52:00,36.0,29.0,30.24,West,280,0.0,0.0,76,0.00,,,0.00,,2013-03-12 12:52:00,
2013-03-12 08:02:00,36.0,29.0,30.24,West,280,0.0,0.0,76,0.00,,,0.00,,2013-03-12 13:02:00,
2013-03-12 08:12:00,36.0,29.0,30.24,West,280,0.0,0.0,76,0.00,,,0.00,,2013-03-12 13:12:00,
2013-03-12 08:22:00,36.0,29.0,30.24,West,280,0.0,0.0,76,0.00,,,0.00,,2013-03-12 13:22:00,
2013-03-12 08:32:00,36.0,29.0,30.24,West,280,0.0,0.0,76,0.00,,,0.00,,2013-03-12 13:32:00,
2013-03-12 08:42:00,36.0,29.0,30.24,West,280,0.0,0.0,76,0.00,,,0.00,,2013-03-12 13:42:00,
2013-03-12 08:52:00,35.0,31.0,30.25,WNW,293,0.0,1.0,84,0.00,,,0.00,,2013-03-12 13:52:00,
2013-03-12 09:02:00,35.0,30.0,30.27,NW,314,0.0,1.0,82,0.00,,,0.00,,2013-03-12 14:02:00,
2013-03-12 09:12:00,35.0,30.0,30.27,NW,314,0.0,1.0,82,0.00,,,0.00,,2013-03-12 14:12:00,
2013-03-12 09:22:00,36.0,31.0,30.29,WNW,290,2.0,4.0,81,0.00,,,0.00,,2013-03-12 14:22:00,
2013-03-12 09:32:00,38.0,32.0,30.29,WNW,285,0.0,1.0,80,0.00,,,0.00,,2013-03-12 14:32:00,
2013-03-12 09:42:00,38.0,32.0,30.29,WNW,285,0.0,1.0,80,0.00,,,0.00,,2013-03-12 14:42:00,
2013-03-12 09:53:00,39.0,32.0,30.30,NW,311,2.0,7.0,75,0.00,,,0.00,,2013-03-12 14:53:00,
2013-03-12 10:02:00,40.0,32.0,30.31,WNW,298,4.0,8.0,72,0.00,,,0.00,,2013-03-12 15:02:00,
2013-03-12 10:12:00,40.0,32.0,30.31,WNW,298,4.0,8.0,72,0.00,,,0.00,,2013-03-12 15:12:00,
2013-03-12 10:22:00,40.0,32.0,30.31,WNW,298,4.0,8.0,72,0.00,,,0.00,,2013-03-12 15:22:00,
2013-03-12 10:32:00,40.0,32.0,30.31,WNW,298,4.0,8.0,72,0.00,,,0.00,,2013-03-12 15:32:00,
2013-03-12 10:42:00,40.0,32.0,30.31,WNW,298,4.0,8.0,72,0.00,,,0.00,,2013-03-12 15:42:00,
2013-03-12 10:53:00,42.0,27.0,30.34,NW,315,6.0,12.0,56,0.00,,,0.00,,2013-03-12 15:53:00,
2013-03-12 11:02:00,42.0,26.0,30.34,WNW,297,4.0,14.0,53,0.00,,,0.00,,2013-03-12 16:02:00,
2013-03-12 11:12:00,42.0,26.0,30.34,WNW,297,4.0,14.0,53,0.00,,,0.00,,2013-03-12 16:12:00,
2013-03-12 11:22:00,42.0,24.0,30.35,NW,315,6.0,14.0,48,0.00,,,0.00,,2013-03-12 16:22:00,
2013-03-12 11:32:00,42.0,24.0,30.35,NW,315,6.0,14.0,48,0.00,,,0.00,,2013-03-12 16:32:00,
2013-03-12 11:42:00,42.0,24.0,30.35,NW,315,6.0,14.0,48,0.00,,,0.00,,2013-03-12 16:42:00,
2013-03-12 11:53:00,42.0,23.0,30.35,North,352,10.0,16.0,47,0.00,,,0.00,,2013-03-12 16:53:00,
2013-03-12 12:02:00,42.0,23.0,30.35,North,352,10.0,16.0,47,0.00,,,0.00,,2013-03-12 17:02:00,
2013-03-12 12:13:00,42.0,23.0,30.35,North,352,10.0,16.0,47,0.00,,,0.00,,2013-03-12 17:13:00,
2013-03-12 12:22:00,43.0,23.0,30.36,NW,319,8.0,18.0,44,0.00,,,0.00,,2013-03-12 17:22:00,
2013-03-12 12:33:00,43.0,23.0,30.36,NW,319,8.0,18.0,44,0.00,,,0.00,,2013-03-12 17:33:00,
2013-03-12 12:44:00,43.0,23.0,30.36,NW,319,8.0,18.0,44,0.00,,,0.00,,2013-03-12 17:44:00,
2013-03-12 12:53:00,43.0,24.0,30.36,NW,317,9.0,20.0,46,0.00,,,0.00,,2013-03-12 17:53:00,
2013-03-12 13:02:00,43.0,23.0,30.37,West,280,11.0,19.0,44,0.00,,,0.00,,2013-03-12 18:02:00,
2013-03-12 13:13:00,44.0,25.0,30.37,NW,317,7.0,17.0,46,0.00,,,0.00,,2013-03-12 18:13:00,
2013-03-12 13:23:00,44.0,25.0,30.37,NW,317,7.0,17.0,46,0.00,,,0.00,,2013-03-12 18:23:00,
2013-03-12 13:33:00,44.0,25.0,30.36,NW,314,8.0,16.0,46,0.00,,,0.00,,2013-03-12 18:33:00,
2013-03-12 13:42:00,44.0,25.0,30.36,NW,314,8.0,16.0,46,0.00,,,0.00,,2013-03-12 18:42:00,
2013-03-12 13:53:00,44.0,25.0,30.36,NW,314,8.0,16.0,46,0.00,,,0.00,,2013-03-12 18:53:00,
2013-03-12 14:03:00,45.0,24.0,30.36,NW,324,9.0,16.0,44,0.00,,,0.00,,2013-03-12 19:03:00,
2013-03-12 14:13:00,45.0,24.0,30.36,NW,324,9.0,16.0,44,0.00,,,0.00,,2013-03-12 19:13:00,
2013-03-12 14:23:00,45.0,22.0,30.36,WNW,293,13.0,18.0,39,0.00,,,0.00,,2013-03-12 19:23:00,
2013-03-12 14:33:00,45.0,23.0,30.35,NW,316,15.0,17.0,41,0.00,,,0.00,,2013-03-12 19:33:00,
2013-03-12 14:43:00,45.0,23.0,30.35,NW,316,15.0,17.0,41,0.00,,,0.00,,2013-03-12 19:43:00,
2013-03-12 14:53:00,46.0,23.0,30.35,NW,325,12.0,18.0,40,0.00,,,0.00,,2013-03-12 19:53:00,
2013-03-12 15:02:00,46.0,22.0,30.34,NW,305,10.0,17.0,39,0.00,,,0.00,,2013-03-12 20:02:00,
2013-03-12 15:12:00,46.0,22.0,30.34,NW,305,10.0,17.0,39,0.00,,,0.00,,2013-03-12 20:12:00,
2013-03-12 15:22:00,47.0,23.0,30.34,NW,316,10.0,19.0,38,0.00,,,0.00,,2013-03-12 20:22:00,
2013-03-12 15:32:00,47.0,21.0,30.33,NW,319,14.0,19.0,35,0.00,,,0.00,,2013-03-12 20:32:00,
2013-03-12 15:42:00,47.0,21.0,30.33,NW,319,14.0,19.0,35,0.00,,,0.00,,2013-03-12 20:42:00,
2013-03-12 15:53:00,47.0,21.0,30.33,NNE,16,17.0,20.0,36,0.00,,,0.00,,2013-03-12 20:53:00,
2013-03-12 16:02:00,47.0,20.0,30.33,NW,308,9.0,19.0,34,0.00,,,0.00,,2013-03-12 21:02:00,
2013-03-12 16:12:00,47.0,20.0,30.33,NW,308,9.0,19.0,34,0.00,,,0.00,,2013-03-12 21:12:00,
2013-03-12 16:22:00,47.0,19.0,30.32,NW,308,14.0,19.0,33,0.00,,,0.00,,2013-03-12 21:22:00,
2013-03-12 16:32:00,47.0,18.0,30.32,NNW,347,6.0,20.0,31,0.00,,,0.00,,2013-03-12 21:32:00,
2013-03-12 16:43:00,47.0,18.0,30.32,NNW,347,6.0,20.0,31,0.00,,,0.00,,2013-03-12 21:43:00,
2013-03-12 16:52:00,47.0,18.0,30.32,NNW,347,6.0,20.0,31,0.00,,,0.00,,2013-03-12 21:52:00,
2013-03-12 17:02:00,47.0,17.0,30.32,NNW,337,8.0,17.0,30,0.00,,,0.00,,2013-03-12 22:02:00,
2013-03-12 17:12:00,47.0,17.0,30.32,NNW,337,8.0,17.0,30,0.00,,,0.00,,2013-03-12 22:12:00,
2013-03-12 17:22:00,47.0,18.0,30.31,NW,314,11.0,18.0,31,0.00,,,0.00,,2013-03-12 22:22:00,
2013-03-12 17:33:00,48.0,19.0,30.32,WNW,302,5.0,15.0,31,0.00,,,0.00,,2013-03-12 22:33:00,
2013-03-12 17:42:00,48.0,19.0,30.32,WNW,302,5.0,15.0,31,0.00,,,0.00,,2013-03-12 22:42:00,
2013-03-12 17:53:00,48.0,19.0,30.32,WNW,302,5.0,15.0,31,0.00,,,0.00,,2013-03-12 22:53:00,
2013-03-12 18:02:00,48.0,18.0,30.32,NW,318,6.0,18.0,30,0.00,,,0.00,,2013-03-12 23:02:00,
2013-03-12 18:12:00,48.0,18.0,30.32,NW,318,6.0,18.0,30,0.00,,,0.00,,2013-03-12 23:12:00,
2013-03-12 18:22:00,48.0,18.0,30.32,NW,310,10.0,16.0,30,0.00,,,0.00,,2013-03-12 23:22:00,
2013-03-12 18:34:00,48.0,17.0,30.32,WNW,303,11.0,17.0,29,0.00,,,0.00,,2013-03-12 23:34:00,
2013-03-12 18:43:00,48.0,17.0,30.32,WNW,303,11.0,17.0,29,0.00,,,0.00,,2013-03-12 23:43:00,
2013-03-12 18:52:00,48.0,17.0,30.32,NW,316,5.0,15.0,29,0.00,,,0.00,,2013-03-12 23:52:00,
2013-03-12 19:02:00,47.0,16.0,30.32,NW,326,9.0,14.0,29,0.00,,,0.00,,2013-03-13 00:02:00,
2013-03-12 19:12:00,47.0,16.0,30.32,NW,326,9.0,14.0,29,0.00,,,0.00,,2013-03-13 00:12:00,
2013-03-12 19:23:00,47.0,16.0,30.32,NW,326,9.0,14.0,29,0.00,,,0.00,,2013-03-13 00:23:00,
2013-03-12 19:33:00,46.0,19.0,30.32,NW,316,4.0,11.0,33,0.00,,,0.00,,2013-03-13 00:33:00,
2013-03-12 19:42:00,46.0,19.0,30.32,NW,316,4.0,11.0,33,0.00,,,0.00,,2013-03-13 00:42:00,
2013-03-12 19:53:00,45.0,19.0,30.32,NW,316,2.0,9.0,35,0.00,,,0.00,,2013-03-13 00:53:00,
2013-03-12 20:03:00,43.0,19.0,30.33,NNE,30,1.0,6.0,38,0.00,,,0.00,,2013-03-13 01:03:00,
2013-03-12 20:12:00,43.0,19.0,30.33,NNE,30,1.0,6.0,38,0.00,,,0.00,,2013-03-13 01:12:00,
2013-03-12 20:22:00,42.0,19.0,30.33,NNW,329,0.0,4.0,40,0.00,,,0.00,,2013-03-13 01:22:00,
2013-03-12 20:32:00,42.0,19.0,30.34,NNE,19,0.0,3.0,39,0.00,,,0.00,,2013-03-13 01:32:00,
2013-03-12 20:42:00,42.0,19.0,30.34,NNE,19,0.0,3.0,39,0.00,,,0.00,,2013-03-13 01:42:00,
2013-03-12 20:53:00,41.0,19.0,30.34,NW,326,0.0,0.0,40,0.00,,,0.00,,2013-03-13 01:53:00,
2013-03-12 21:02:00,40.0,19.0,30.34,NNW,328,0.0,2.0,42,0.00,,,0.00,,2013-03-13 02:02:00,
2013-03-12 21:12:00,40.0,19.0,30.34,NNW,328,0.0,2.0,42,0.00,,,0.00,,2013-03-13 02:12:00,
2013-03-12 21:22:00,40.0,19.0,30.34,NNW,328,0.0,2.0,42,0.00,,,0.00,,2013-03-13 02:22:00,
2013-03-12 21:32:00,39.0,19.0,30.35,NW,317,0.0,0.0,44,0.00,,,0.00,,2013-03-13 02:32:00,
2013-03-12 21:42:00,39.0,19.0,30.35,NW,317,0.0,0.0,44,0.00,,,0.00,,2013-03-13 02:42:00,
2013-03-12 21:52:00,38.0,19.0,30.36,NW,318,0.0,0.0,46,0.00,,,0.00,,2013-03-13 02:52:00,
2013-03-12 22:02:00,37.0,20.0,30.36,NW,318,0.0,0.0,49,0.00,,,0.00,,2013-03-13 03:02:00,
2013-03-12 22:12:00,37.0,20.0,30.36,NW,318,0.0,0.0,49,0.00,,,0.00,,2013-03-13 03:12:00,
2013-03-12 22:22:00,37.0,20.0,30.37,NW,313,0.0,0.0,50,0.00,,,0.00,,2013-03-13 03:22:00,
2013-03-12 22:32:00,36.0,19.0,30.37,NW,311,0.0,0.0,49,0.00,,,0.00,,2013-03-13 03:32:00,
2013-03-12 22:42:00,36.0,19.0,30.37,NW,311,0.0,0.0,49,0.00,,,0.00,,2013-03-13 03:42:00,
2013-03-12 22:53:00,36.0,19.0,30.38,WNW,300,0.0,0.0,49,0.00,,,0.00,,2013-03-13 03:53:00,
2013-03-12 23:02:00,36.0,19.0,30.39,West,275,0.0,0.0,49,0.00,,,0.00,,2013-03-13 04:02:00,
2013-03-12 23:13:00,36.0,19.0,30.39,West,275,0.0,0.0,49,0.00,,,0.00,,2013-03-13 04:13:00,
2013-03-12 23:22:00,35.0,19.0,30.39,West,277,0.0,0.0,51,0.00,,,0.00,,2013-03-13 04:22:00,
2013-03-12 23:32:00,34.0,19.0,30.40,West,279,0.0,1.0,53,0.00,,,0.00,,2013-03-13 04:32:00,
2013-03-12 23:42:00,34.0,19.0,30.40,West,279,0.0,1.0,53,0.00,,,0.00,,2013-03-13 04:42:00,
2013-03-12 23:53:00,33.0,20.0,30.40,West,266,0.0,1.0,59,0.00,,,0.00,,2013-03-13 04:53:00,